createdAt,value
2018-12-11T00:02:19.850Z,92.90
2018-12-11T00:05:03.806Z,93.10
2018-12-11T00:07:46.059Z,93.30
2018-12-11T00:10:27.882Z,93.50
2018-12-11T00:13:09.650Z,93.70
2018-12-11T00:15:51.799Z,94.20
2018-12-11T00:18:33.772Z,93.90
2018-12-11T00:21:15.865Z,94.00
2018-12-11T00:23:58.038Z,94.20
2018-12-11T00:26:40.298Z,93.70
2018-12-11T00:29:22.149Z,93.60
2018-12-11T00:32:04.215Z,93.10
2018-12-11T00:34:45.998Z,93.00
2018-12-11T00:37:27.978Z,92.60
2018-12-11T00:40:10.069Z,92.30
2018-12-11T00:42:52.329Z,92.30
2018-12-11T00:45:34.125Z,92.50
2018-12-11T00:48:16.390Z,92.50
2018-12-11T00:50:59.388Z,92.50
2018-12-11T00:53:41.579Z,92.30
2018-12-11T00:56:23.852Z,92.70
2018-12-11T00:59:05.704Z,92.40
2018-12-11T01:01:47.570Z,92.40
2018-12-11T01:04:29.611Z,92.50
2018-12-11T01:07:11.501Z,92.40
2018-12-11T01:09:53.690Z,92.20
2018-12-11T01:12:35.715Z,92.30
2018-12-11T01:15:17.677Z,92.30
2018-12-11T01:17:59.787Z,92.10
2018-12-11T01:20:43.193Z,92.40
2018-12-11T01:23:25.004Z,92.60
2018-12-11T01:26:06.737Z,92.80
2018-12-11T01:28:48.865Z,93.00
2018-12-11T01:31:31.010Z,93.10
2018-12-11T01:34:13.139Z,93.20
2018-12-11T01:36:55.499Z,93.10
2018-12-11T01:39:37.317Z,93.00
2018-12-11T01:42:19.470Z,92.80
2018-12-11T01:45:01.284Z,92.70
2018-12-11T01:47:43.483Z,92.70
2018-12-11T01:50:25.293Z,92.60
2018-12-11T01:53:07.883Z,92.50
2018-12-11T01:55:51.417Z,92.40
2018-12-11T01:58:33.636Z,92.30
2018-12-11T02:01:15.769Z,92.40
2018-12-11T02:03:57.954Z,92.50
2018-12-11T02:06:40.046Z,92.50
2018-12-11T02:09:22.185Z,92.50
2018-12-11T02:12:04.317Z,92.50
2018-12-11T02:14:46.053Z,92.40
2018-12-11T02:17:28.110Z,92.40
2018-12-11T02:20:10.122Z,92.40
2018-12-11T02:22:52.050Z,92.40
2018-12-11T02:25:34.086Z,92.50
2018-12-11T02:28:16.157Z,92.60
2018-12-11T02:30:58.279Z,92.60
2018-12-11T02:33:40.558Z,92.60
2018-12-11T02:36:22.693Z,92.60
2018-12-11T02:39:07.374Z,92.70
2018-12-11T02:41:49.441Z,92.80
2018-12-11T02:44:31.723Z,92.70
2018-12-11T02:47:13.729Z,92.80
2018-12-11T02:49:55.590Z,92.90
2018-12-11T02:52:37.775Z,93.10
2018-12-11T02:55:20.003Z,93.20
2018-12-11T02:58:02.158Z,93.40
2018-12-11T03:00:43.962Z,93.40
2018-12-11T03:03:26.026Z,93.50
2018-12-11T03:06:07.891Z,93.60
2018-12-11T03:08:49.927Z,93.90
2018-12-11T03:11:31.986Z,94.30
2018-12-11T03:14:13.793Z,94.40
2018-12-11T03:16:56.029Z,94.50
2018-12-11T03:19:37.953Z,94.60
2018-12-11T03:22:19.597Z,94.80
2018-12-11T03:25:01.574Z,94.60
2018-12-11T03:27:44.662Z,94.50
2018-12-11T03:30:26.839Z,94.60
2018-12-11T03:33:08.824Z,94.60
2018-12-11T03:35:50.897Z,94.70
2018-12-11T03:38:32.728Z,94.80
2018-12-11T03:41:14.798Z,94.80
2018-12-11T03:43:56.645Z,94.90
2018-12-11T03:46:38.795Z,95.10
2018-12-11T03:49:20.789Z,95.10
2018-12-11T03:52:02.835Z,95.20
2018-12-11T03:54:44.827Z,95.40
2018-12-11T03:57:27.142Z,95.60
2018-12-11T04:00:10.139Z,95.50
2018-12-11T04:02:52.150Z,95.50
2018-12-11T04:05:34.007Z,95.60
2018-12-11T04:08:15.957Z,95.60
2018-12-11T04:10:58.097Z,95.60
2018-12-11T04:13:40.118Z,95.60
2018-12-11T04:16:22.102Z,95.60
2018-12-11T04:19:04.046Z,95.60
2018-12-11T04:21:45.955Z,95.70
2018-12-11T04:24:28.013Z,95.30
2018-12-11T04:27:11.998Z,94.60
2018-12-11T04:29:54.511Z,94.60
2018-12-11T04:32:36.295Z,94.60
2018-12-11T04:35:18.472Z,94.70
2018-12-11T04:38:00.316Z,94.70
2018-12-11T04:40:42.295Z,94.80
2018-12-11T04:43:24.183Z,95.00
2018-12-11T04:46:06.322Z,95.00
2018-12-11T04:48:48.126Z,95.00
2018-12-11T04:51:30.205Z,95.10
2018-12-11T04:54:12.294Z,95.50
2018-12-11T04:56:54.633Z,95.70
2018-12-11T04:59:36.506Z,95.90
2018-12-11T05:02:18.749Z,96.10
2018-12-11T05:05:00.450Z,96.10
2018-12-11T05:07:42.633Z,96.10
2018-12-11T05:10:24.564Z,96.10
2018-12-11T05:13:06.562Z,95.80
2018-12-11T05:15:48.559Z,95.60
2018-12-11T05:18:30.510Z,95.60
2018-12-11T05:21:12.502Z,95.60
2018-12-11T05:23:54.705Z,95.70
2018-12-11T05:26:36.357Z,95.50
2018-12-11T05:29:18.389Z,94.80
2018-12-11T05:32:00.597Z,94.70
2018-12-11T05:34:42.573Z,94.70
2018-12-11T05:37:24.746Z,94.90
2018-12-11T05:40:06.758Z,95.10
2018-12-11T05:42:49.804Z,95.30
2018-12-11T05:45:31.925Z,95.40
2018-12-11T05:48:14.110Z,95.50
2018-12-11T05:50:55.793Z,95.60
2018-12-11T05:53:37.914Z,95.30
2018-12-11T05:56:19.696Z,95.10
2018-12-11T05:59:01.807Z,95.20
2018-12-11T06:01:43.705Z,95.20
2018-12-11T06:04:25.776Z,95.40
2018-12-11T06:07:08.037Z,95.50
2018-12-11T06:09:49.904Z,95.60
2018-12-11T06:12:32.053Z,95.80
2018-12-11T06:15:13.969Z,95.90
2018-12-11T06:17:56.002Z,95.90
2018-12-11T06:20:37.746Z,95.80
2018-12-11T06:23:19.770Z,95.80
2018-12-11T06:26:01.685Z,95.90
2018-12-11T06:28:43.913Z,95.90
2018-12-11T06:31:25.862Z,95.80
2018-12-11T06:34:08.181Z,95.60
2018-12-11T06:36:50.366Z,95.50
2018-12-11T06:39:32.162Z,95.00
2018-12-11T06:42:14.155Z,94.90
2018-12-11T06:44:56.309Z,95.10
2018-12-11T06:47:38.390Z,95.30
2018-12-11T06:50:20.573Z,95.40
2018-12-11T06:53:02.528Z,95.30
2018-12-11T06:55:44.437Z,95.10
2018-12-11T06:58:26.478Z,95.10
2018-12-11T07:01:08.493Z,95.20
2018-12-11T07:03:50.358Z,95.40
2018-12-11T07:06:32.462Z,95.60
2018-12-11T07:09:14.430Z,95.50
2018-12-11T07:11:56.491Z,95.40
2018-12-11T07:14:38.476Z,95.20
2018-12-11T07:17:20.464Z,95.00
2018-12-11T07:20:02.461Z,95.00
2018-12-11T07:22:45.490Z,95.00
2018-12-11T07:25:27.657Z,95.00
2018-12-11T07:28:09.642Z,95.10
2018-12-11T07:30:51.818Z,95.20
2018-12-11T07:33:33.564Z,95.30
2018-12-11T07:36:15.610Z,95.40
2018-12-11T07:38:57.615Z,95.50
2018-12-11T07:41:39.758Z,95.60
2018-12-11T07:44:21.635Z,95.70
2018-12-11T07:47:03.828Z,95.70
2018-12-11T07:49:45.733Z,95.70
2018-12-11T07:52:27.654Z,95.60
2018-12-11T07:55:09.552Z,95.70
2018-12-11T07:57:51.641Z,95.70
2018-12-11T08:00:33.847Z,95.70
2018-12-11T08:03:15.515Z,95.80
2018-12-11T08:05:57.668Z,95.90
2018-12-11T08:08:39.726Z,95.80
2018-12-11T08:11:21.950Z,95.90
2018-12-11T08:14:04.138Z,95.80
2018-12-11T08:16:45.933Z,95.80
2018-12-11T08:19:27.909Z,95.80
2018-12-11T08:22:09.802Z,95.60
2018-12-11T08:24:52.016Z,95.40
2018-12-11T08:27:34.130Z,95.30
2018-12-11T08:30:16.142Z,95.00
2018-12-11T08:32:58.126Z,94.70
2018-12-11T08:35:39.953Z,94.90
2018-12-11T08:38:21.883Z,94.40
2018-12-11T08:41:03.970Z,94.30
2018-12-11T08:43:46.011Z,94.40
2018-12-11T08:46:28.199Z,94.70
2018-12-11T08:49:10.434Z,94.90
2018-12-11T08:51:52.174Z,95.20
2018-12-11T08:54:34.194Z,95.80
2018-12-11T08:57:15.987Z,95.40
2018-12-11T08:59:58.186Z,95.30
2018-12-11T09:02:40.237Z,94.40
2018-12-11T09:05:22.079Z,93.70
2018-12-11T09:08:04.225Z,93.10
2018-12-11T09:10:46.188Z,92.50
2018-12-11T09:13:28.214Z,92.60
2018-12-11T09:16:10.134Z,90.00
2018-12-11T09:18:52.307Z,83.90
2018-12-11T09:21:34.621Z,75.90
2018-12-11T09:24:16.540Z,71.60
2018-12-11T09:26:58.706Z,69.30
2018-12-11T09:29:40.610Z,67.70
2018-12-11T09:32:22.806Z,69.60
2018-12-11T09:35:05.299Z,73.40
2018-12-11T09:37:47.613Z,74.80
2018-12-11T09:40:29.735Z,70.80
2018-12-11T09:43:11.510Z,67.70
2018-12-11T09:45:53.594Z,69.30
2018-12-11T09:48:35.647Z,67.70
2018-12-11T09:51:17.863Z,67.80
2018-12-11T09:54:00.659Z,69.50
2018-12-11T09:56:42.741Z,68.90
2018-12-11T09:59:24.986Z,66.90
2018-12-11T10:02:07.459Z,67.90
2018-12-11T10:04:49.694Z,70.10
2018-12-11T10:07:32.001Z,72.60
2018-12-11T10:10:14.098Z,76.30
2018-12-11T10:12:56.298Z,79.40
2018-12-11T10:15:38.393Z,80.30
2018-12-11T10:18:20.533Z,82.50
2018-12-11T10:21:02.742Z,84.10
2018-12-11T10:23:44.934Z,85.70
2018-12-11T10:26:27.004Z,86.80
2018-12-11T10:29:08.811Z,87.60
2018-12-11T10:31:50.732Z,87.90
2018-12-11T10:34:33.055Z,88.00
2018-12-11T10:37:15.082Z,88.90
2018-12-11T10:39:57.069Z,89.70
2018-12-11T10:42:39.086Z,88.70
2018-12-11T10:45:21.169Z,89.10
2018-12-11T10:48:04.313Z,88.20
2018-12-11T10:50:46.118Z,88.20
2018-12-11T10:53:28.369Z,87.10
2018-12-11T10:56:10.410Z,86.30
2018-12-11T10:58:52.490Z,84.90
2018-12-11T11:01:37.626Z,85.60
2018-12-11T11:04:19.878Z,84.80
2018-12-11T11:07:01.770Z,85.50
2018-12-11T11:09:43.966Z,86.10
2018-12-11T11:12:26.029Z,85.70
2018-12-11T11:15:08.757Z,85.80
2018-12-11T11:17:51.145Z,87.30
2018-12-11T11:20:32.917Z,87.10
2018-12-11T11:23:14.869Z,87.80
2018-12-11T11:25:56.836Z,87.60
2018-12-11T11:28:38.893Z,86.00
2018-12-11T11:31:20.870Z,85.40
2018-12-11T11:34:02.810Z,85.60
2018-12-11T11:36:44.840Z,85.00
2018-12-11T11:39:26.925Z,83.80
2018-12-11T11:42:08.816Z,84.30
2018-12-11T11:44:50.958Z,82.40
2018-12-11T11:47:32.762Z,81.30
2018-12-11T11:50:18.447Z,80.10
2018-12-11T11:53:01.751Z,76.10
2018-12-11T11:55:43.751Z,76.90
2018-12-11T11:58:25.609Z,77.20
2018-12-11T12:01:07.678Z,76.50
2018-12-11T12:03:49.629Z,79.00
2018-12-11T12:06:31.842Z,80.80
2018-12-11T12:09:13.996Z,81.00
2018-12-11T12:11:56.102Z,79.50
2018-12-11T12:14:37.806Z,80.30
2018-12-11T12:17:19.940Z,80.00
2018-12-11T12:20:02.053Z,78.80
2018-12-11T12:22:43.928Z,79.10
2018-12-11T12:25:25.877Z,79.80
2018-12-11T12:28:07.987Z,80.60
2018-12-11T12:30:50.709Z,79.00
2018-12-11T12:33:33.072Z,81.00
2018-12-11T12:36:14.897Z,79.60
2018-12-11T12:38:56.957Z,78.20
2018-12-11T12:41:38.877Z,78.00
2018-12-11T12:44:21.073Z,73.40
2018-12-11T12:47:02.858Z,69.70
2018-12-11T12:49:50.403Z,65.00
2018-12-11T12:52:28.714Z,62.70
2018-12-11T12:55:10.993Z,60.00
2018-12-11T12:57:53.130Z,58.00
2018-12-11T13:00:35.190Z,54.90
2018-12-11T13:03:17.169Z,53.40
2018-12-11T13:05:59.117Z,53.70
2018-12-11T13:08:40.952Z,51.00
2018-12-11T13:11:23.143Z,53.50
2018-12-11T13:14:05.139Z,54.10
2018-12-11T13:16:47.253Z,52.30
2018-12-11T13:19:29.361Z,51.80
2018-12-11T13:22:12.270Z,54.60
2018-12-11T13:24:54.482Z,54.80
2018-12-11T13:27:36.846Z,55.10
2018-12-11T13:30:21.499Z,53.80
2018-12-11T13:33:04.087Z,52.90
2018-12-11T13:35:46.027Z,51.80
2018-12-11T13:38:28.335Z,50.40
2018-12-11T13:41:10.279Z,48.20
2018-12-11T13:43:52.420Z,47.50
2018-12-11T13:46:34.852Z,45.50
2018-12-11T13:49:17.474Z,44.50
2018-12-11T13:51:59.567Z,42.80
2018-12-11T13:54:41.538Z,42.80
2018-12-11T13:57:23.161Z,41.30
2018-12-11T14:00:06.198Z,41.10
2018-12-11T14:02:48.276Z,41.20
2018-12-11T14:05:30.320Z,42.00
2018-12-11T14:08:12.250Z,44.00
2018-12-11T14:10:54.294Z,44.00
2018-12-11T14:13:36.298Z,43.80
2018-12-11T14:16:18.326Z,43.00
2018-12-11T14:19:00.252Z,43.10
2018-12-11T14:21:42.007Z,44.80
2018-12-11T14:24:24.123Z,49.70
2018-12-11T14:27:05.806Z,50.10
2018-12-11T14:29:47.558Z,50.20
2018-12-11T14:32:29.628Z,49.40
2018-12-11T14:35:11.341Z,48.80
2018-12-11T14:37:53.354Z,48.90
2018-12-11T14:40:35.433Z,48.50
2018-12-11T14:43:17.465Z,49.00
2018-12-11T14:45:59.590Z,50.10
2018-12-11T14:48:41.486Z,51.40
2018-12-11T14:51:23.627Z,53.10
2018-12-11T14:54:05.994Z,56.80
2018-12-11T14:56:47.992Z,58.00
2018-12-11T14:59:29.841Z,58.80
2018-12-11T15:02:12.210Z,60.50
2018-12-11T15:04:54.114Z,63.40
2018-12-11T15:07:36.432Z,66.80
2018-12-11T15:10:18.544Z,69.00
2018-12-11T15:13:00.418Z,71.80
2018-12-11T15:15:42.370Z,73.90
2018-12-11T15:18:24.195Z,76.40
2018-12-11T15:21:06.357Z,78.00
2018-12-11T15:23:48.273Z,79.50
2018-12-11T15:26:30.123Z,80.60
2018-12-11T15:29:12.211Z,81.40
2018-12-11T15:31:54.130Z,82.30
2018-12-11T15:34:36.236Z,83.00
2018-12-11T15:37:18.513Z,83.30
2018-12-11T15:40:00.586Z,83.50
2018-12-11T15:42:42.464Z,84.70
2018-12-11T15:45:24.362Z,86.00
2018-12-11T15:48:06.573Z,87.20
2018-12-11T15:50:48.467Z,88.30
2018-12-11T15:53:30.407Z,87.80
2018-12-11T15:56:12.597Z,87.90
2018-12-11T15:58:54.345Z,88.60
2018-12-11T16:01:36.594Z,89.20
2018-12-11T16:04:18.618Z,89.70
2018-12-11T16:07:00.697Z,89.90
2018-12-11T16:09:42.608Z,90.30
2018-12-11T16:12:24.833Z,90.30
2018-12-11T16:15:06.887Z,90.40
2018-12-11T16:17:48.662Z,90.70
2018-12-11T16:20:30.681Z,91.00
2018-12-11T16:23:12.656Z,91.20
2018-12-11T16:25:54.824Z,91.40
2018-12-11T16:28:36.514Z,91.70
2018-12-11T16:31:18.365Z,91.80
2018-12-11T16:34:00.497Z,92.00
2018-12-11T16:36:42.566Z,91.90
2018-12-11T16:39:24.612Z,91.80
2018-12-11T16:42:06.622Z,91.90
2018-12-11T16:44:48.522Z,91.90
2018-12-11T16:47:30.366Z,92.00
2018-12-11T16:50:12.347Z,92.20
2018-12-11T16:52:54.046Z,92.20
2018-12-11T16:55:36.114Z,92.20
2018-12-11T16:58:17.931Z,91.90
2018-12-11T17:01:00.014Z,92.00
2018-12-11T17:03:41.831Z,92.00
2018-12-11T17:06:23.813Z,91.80
2018-12-11T17:09:09.240Z,91.90
2018-12-11T17:11:50.999Z,92.10
2018-12-11T17:14:33.406Z,92.10
2018-12-11T17:17:15.073Z,92.00
2018-12-11T17:19:57.315Z,92.00
2018-12-11T17:22:39.414Z,92.10
2018-12-11T17:25:22.161Z,92.30
2018-12-11T17:28:05.204Z,92.40
2018-12-11T17:30:47.139Z,92.80
2018-12-11T17:33:29.174Z,93.10
2018-12-11T17:36:11.054Z,93.20
2018-12-11T17:38:53.282Z,93.20
2018-12-11T17:41:35.341Z,92.60
2018-12-11T17:44:17.212Z,92.70
2018-12-11T17:46:59.044Z,92.70
2018-12-11T17:49:41.165Z,92.80
2018-12-11T17:52:23.005Z,92.70
2018-12-11T17:55:05.344Z,92.70
2018-12-11T17:57:47.054Z,92.70
2018-12-11T18:00:29.281Z,92.80
2018-12-11T18:03:11.463Z,92.70
2018-12-11T18:05:53.659Z,92.50
2018-12-11T18:08:35.815Z,92.50
2018-12-11T18:11:17.977Z,92.80
2018-12-11T18:14:02.012Z,92.80
2018-12-11T18:16:44.214Z,92.60
2018-12-11T18:19:26.182Z,92.80
2018-12-11T18:22:08.122Z,92.80
2018-12-11T18:24:49.969Z,93.00
2018-12-11T18:27:32.159Z,93.00
2018-12-11T18:30:14.355Z,93.20
2018-12-11T18:32:56.081Z,93.30
2018-12-11T18:35:38.235Z,93.10
2018-12-11T18:38:20.173Z,93.00
2018-12-11T18:41:02.401Z,92.60
2018-12-11T18:43:45.578Z,92.40
2018-12-11T18:46:27.562Z,92.70
2018-12-11T18:49:09.404Z,93.00
2018-12-11T18:51:51.402Z,93.20
2018-12-11T18:54:33.259Z,93.30
2018-12-11T18:57:15.230Z,93.30
2018-12-11T18:59:58.386Z,93.40
2018-12-11T19:02:40.518Z,93.30
2018-12-11T19:05:22.549Z,93.40
2018-12-11T19:08:05.865Z,93.40
2018-12-11T19:10:47.749Z,93.40
2018-12-11T19:13:31.677Z,93.20
2018-12-11T19:16:14.022Z,93.00
2018-12-11T19:18:56.090Z,92.80
2018-12-11T19:21:38.353Z,92.90
2018-12-11T19:24:32.317Z,92.80
2018-12-11T19:27:14.289Z,92.70
2018-12-11T19:29:56.380Z,92.10
2018-12-11T19:32:38.499Z,92.50
2018-12-11T19:35:21.410Z,92.90
2018-12-11T19:38:05.103Z,93.00
2018-12-11T19:40:47.271Z,93.10
2018-12-11T19:43:29.356Z,93.30
2018-12-11T19:46:11.472Z,93.40
2018-12-11T19:48:53.805Z,93.20
2018-12-11T19:51:35.584Z,93.30
2018-12-11T19:54:17.217Z,93.20
2018-12-11T19:56:59.447Z,93.40
2018-12-11T19:59:41.469Z,93.60
2018-12-11T20:02:23.629Z,93.30
2018-12-11T20:05:06.091Z,93.10
2018-12-11T20:07:47.620Z,93.20
2018-12-11T20:10:29.911Z,93.30
2018-12-11T20:13:11.819Z,93.30
2018-12-11T20:15:53.926Z,93.50
2018-12-11T20:18:35.653Z,93.00
2018-12-11T20:21:17.821Z,93.50
2018-12-11T20:24:04.958Z,92.80
2018-12-11T20:26:44.748Z,93.00
2018-12-11T20:29:26.695Z,93.10
2018-12-11T20:32:08.569Z,92.90
2018-12-11T20:34:50.924Z,93.00
2018-12-11T20:37:32.864Z,93.10
2018-12-11T20:40:14.913Z,93.20
2018-12-11T20:42:58.301Z,93.40
2018-12-11T20:45:39.963Z,93.40
2018-12-11T20:48:23.047Z,93.40
2018-12-11T20:51:06.943Z,93.60
2018-12-11T20:53:49.160Z,93.20
2018-12-11T20:56:31.041Z,93.00
2018-12-11T20:59:13.298Z,92.70
2018-12-11T21:01:55.454Z,92.70
2018-12-11T21:04:37.215Z,92.60
2018-12-11T21:07:20.366Z,92.80
2018-12-11T21:10:02.614Z,93.00
2018-12-11T21:12:44.603Z,92.90
2018-12-11T21:15:26.782Z,93.00
2018-12-11T21:18:08.983Z,93.00
2018-12-11T21:20:50.989Z,93.10
2018-12-11T21:23:33.170Z,93.30
2018-12-11T21:26:15.514Z,93.40
2018-12-11T21:28:57.571Z,93.60
2018-12-11T21:31:39.732Z,93.50
2018-12-11T21:34:21.530Z,93.60
2018-12-11T21:37:03.382Z,93.70
2018-12-11T21:39:45.645Z,93.70
2018-12-11T21:42:27.394Z,93.80
2018-12-11T21:45:09.570Z,93.70
2018-12-11T21:47:51.299Z,93.70
2018-12-11T21:50:33.370Z,93.70
2018-12-11T21:53:15.497Z,93.70
2018-12-11T21:55:57.138Z,93.70
2018-12-11T21:58:39.186Z,93.60
2018-12-11T22:01:21.345Z,93.70
2018-12-11T22:04:03.122Z,93.70
2018-12-11T22:06:45.217Z,94.00
2018-12-11T22:09:27.189Z,94.00
2018-12-11T22:12:09.186Z,93.80
2018-12-11T22:14:51.285Z,93.90
2018-12-11T22:17:33.553Z,94.00
2018-12-11T22:20:15.645Z,94.20
2018-12-11T22:22:57.725Z,94.40
2018-12-11T22:25:39.707Z,94.10
2018-12-11T22:28:21.799Z,94.00
2018-12-11T22:31:04.005Z,93.90
2018-12-11T22:33:45.811Z,93.20
2018-12-11T22:36:27.853Z,93.30
2018-12-11T22:39:09.738Z,93.60
2018-12-11T22:41:51.952Z,93.70
2018-12-11T22:44:34.046Z,93.80
2018-12-11T22:47:15.941Z,93.80
2018-12-11T22:49:57.922Z,93.50
2018-12-11T22:52:40.181Z,93.40
2018-12-11T22:55:22.282Z,93.60
2018-12-11T22:58:04.201Z,93.80
2018-12-11T23:00:47.706Z,94.00
2018-12-11T23:03:30.197Z,94.20
2018-12-11T23:06:12.146Z,94.20
2018-12-11T23:08:54.259Z,94.50
2018-12-11T23:11:36.337Z,94.30
2018-12-11T23:14:18.375Z,94.30
2018-12-11T23:17:00.493Z,94.30
2018-12-11T23:19:42.569Z,94.20
2018-12-11T23:22:24.598Z,94.30
2018-12-11T23:25:06.918Z,94.30
2018-12-11T23:27:49.615Z,94.40
2018-12-11T23:30:31.702Z,94.30
2018-12-11T23:33:13.645Z,93.80
2018-12-11T23:35:55.454Z,93.60
2018-12-11T23:38:37.532Z,93.60
2018-12-11T23:41:19.522Z,93.60
2018-12-11T23:44:01.594Z,93.70
2018-12-11T23:46:43.687Z,93.80
2018-12-11T23:49:25.565Z,93.70
2018-12-11T23:52:07.330Z,93.80
2018-12-11T23:54:49.203Z,93.90
2018-12-11T23:57:31.509Z,93.80
